createdAt,value
2023-02-19T00:00:44.417Z,10.67
2023-02-19T00:03:16.948Z,10.54
2023-02-19T00:05:49.553Z,10.58
2023-02-19T00:08:22.179Z,10.51
2023-02-19T00:10:54.731Z,10.56
2023-02-19T00:13:27.356Z,10.67
2023-02-19T00:16:07.356Z,10.59
2023-02-19T00:18:40.405Z,10.31
2023-02-19T00:21:13.727Z,10.47
2023-02-19T00:23:55.583Z,10.56
2023-02-19T00:26:29.344Z,10.56
2023-02-19T00:29:02.467Z,10.32
2023-02-19T00:31:36.366Z,10.47
2023-02-19T00:34:11.058Z,10.52
2023-02-19T00:36:44.223Z,10.41
2023-02-19T00:39:18.506Z,10.57
2023-02-19T00:41:51.214Z,10.47
2023-02-19T00:44:23.786Z,10.36
2023-02-19T00:46:56.301Z,10.26
2023-02-19T00:49:28.841Z,10.29
2023-02-19T00:52:01.508Z,10.29
2023-02-19T00:54:34.074Z,10.29
2023-02-19T00:57:06.585Z,10.26
2023-02-19T00:59:39.143Z,10.30
2023-02-19T01:02:11.686Z,10.25
2023-02-19T01:04:44.284Z,10.34
2023-02-19T01:07:16.840Z,10.33
2023-02-19T01:09:49.429Z,10.26
2023-02-19T01:12:24.279Z,10.17
2023-02-19T01:14:57.640Z,10.23
2023-02-19T01:17:30.206Z,10.12
2023-02-19T01:20:02.803Z,10.27
2023-02-19T01:22:35.319Z,10.25
2023-02-19T01:25:08.104Z,10.22
2023-02-19T01:27:40.693Z,10.28
2023-02-19T01:30:13.721Z,10.26
2023-02-19T01:32:46.228Z,10.07
2023-02-19T01:35:18.800Z,10.08
2023-02-19T01:37:51.353Z,10.23
2023-02-19T01:40:24.206Z,10.23
2023-02-19T01:42:56.773Z,10.13
2023-02-19T01:45:38.231Z,10.11
2023-02-19T01:48:38.015Z,10.08
2023-02-19T01:51:18.830Z,10.06
2023-02-19T01:54:00.306Z,9.99
2023-02-19T01:56:38.301Z,10.08
2023-02-19T01:59:12.075Z,9.96
2023-02-19T02:01:45.686Z,10.16
2023-02-19T02:04:19.342Z,10.21
2023-02-19T02:06:56.414Z,10.00
2023-02-19T02:09:50.046Z,10.00
2023-02-19T02:12:22.603Z,9.96
2023-02-19T02:14:55.112Z,9.95
2023-02-19T02:17:55.354Z,9.84
2023-02-19T02:21:15.867Z,9.99
2023-02-19T02:24:21.665Z,10.14
2023-02-19T02:27:16.096Z,9.96
2023-02-19T02:30:35.362Z,10.04
2023-02-19T02:33:26.535Z,9.80
2023-02-19T02:36:27.053Z,10.14
2023-02-19T02:39:05.092Z,9.86
2023-02-19T02:41:45.088Z,9.92
2023-02-19T02:44:17.645Z,9.77
2023-02-19T02:46:50.257Z,9.88
2023-02-19T02:49:24.643Z,9.69
2023-02-19T02:52:19.812Z,9.68
2023-02-19T02:55:04.593Z,9.77
2023-02-19T02:57:37.159Z,9.84
2023-02-19T03:00:10.561Z,9.78
2023-02-19T03:02:44.246Z,9.62
2023-02-19T03:05:42.594Z,9.53
2023-02-19T03:08:47.782Z,9.53
2023-02-19T03:11:39.600Z,9.38
2023-02-19T03:15:07.241Z,9.51
2023-02-19T03:18:11.824Z,9.33
2023-02-19T03:20:50.725Z,9.18
2023-02-19T03:23:49.061Z,9.23
2023-02-19T03:26:24.610Z,9.16
2023-02-19T03:29:18.911Z,9.23
2023-02-19T03:32:01.379Z,9.17
2023-02-19T03:35:03.485Z,9.22
2023-02-19T03:37:41.591Z,9.23
2023-02-19T03:40:15.483Z,9.28
2023-02-19T03:43:19.601Z,9.32
2023-02-19T03:46:23.444Z,9.24
2023-02-19T03:49:09.929Z,9.39
2023-02-19T03:52:02.759Z,9.35
2023-02-19T03:54:54.718Z,9.34
2023-02-19T03:57:54.349Z,9.26
2023-02-19T04:00:41.588Z,9.21
2023-02-19T04:03:48.041Z,9.23
2023-02-19T04:06:30.294Z,9.20
2023-02-19T04:09:09.246Z,9.13
2023-02-19T04:11:42.789Z,8.97
2023-02-19T04:14:23.611Z,9.12
2023-02-19T04:17:05.402Z,9.00
2023-02-19T04:19:42.137Z,9.07
2023-02-19T04:22:17.652Z,9.34
2023-02-19T04:24:54.079Z,9.23
2023-02-19T04:27:26.933Z,9.22
2023-02-19T04:29:59.970Z,9.24
2023-02-19T04:32:32.764Z,9.17
2023-02-19T04:35:05.767Z,9.17
2023-02-19T04:37:38.334Z,9.19
2023-02-19T04:40:11.504Z,9.19
2023-02-19T04:42:44.132Z,9.09
2023-02-19T04:45:16.820Z,9.06
2023-02-19T04:47:49.485Z,9.03
2023-02-19T04:50:23.221Z,8.82
2023-02-19T04:52:55.858Z,8.61
2023-02-19T04:55:28.656Z,9.03
2023-02-19T04:58:01.241Z,8.74
2023-02-19T05:00:34.116Z,8.73
2023-02-19T05:03:06.795Z,8.83
2023-02-19T05:05:39.329Z,8.87
2023-02-19T05:08:11.838Z,8.68
2023-02-19T05:10:44.376Z,8.86
2023-02-19T05:13:16.981Z,8.73
2023-02-19T05:16:04.847Z,8.73
2023-02-19T05:18:37.475Z,8.74
2023-02-19T05:21:12.118Z,8.70
2023-02-19T05:23:44.855Z,8.81
2023-02-19T05:26:21.598Z,8.81
2023-02-19T05:28:54.617Z,8.60
2023-02-19T05:31:27.349Z,8.69
2023-02-19T05:33:59.852Z,8.72
2023-02-19T05:36:32.644Z,8.62
2023-02-19T05:39:06.293Z,8.68
2023-02-19T05:41:39.093Z,8.65
2023-02-19T05:44:11.708Z,8.60
2023-02-19T05:46:44.284Z,8.52
2023-02-19T05:49:17.007Z,8.56
2023-02-19T05:51:52.522Z,8.54
2023-02-19T05:54:25.079Z,8.36
2023-02-19T05:56:58.369Z,8.67
2023-02-19T05:59:31.659Z,8.66
2023-02-19T06:02:04.218Z,8.36
2023-02-19T06:04:36.816Z,8.59
2023-02-19T06:07:09.479Z,8.52
2023-02-19T06:09:42.098Z,8.50
2023-02-19T06:12:14.603Z,8.30
2023-02-19T06:14:48.884Z,8.43
2023-02-19T06:17:21.459Z,8.44
2023-02-19T06:19:53.941Z,8.43
2023-02-19T06:22:27.133Z,8.62
2023-02-19T06:24:59.703Z,8.54
2023-02-19T06:27:32.265Z,8.52
2023-02-19T06:30:05.318Z,8.53
2023-02-19T06:32:38.100Z,8.45
2023-02-19T06:35:10.627Z,8.48
2023-02-19T06:37:46.188Z,8.69
2023-02-19T06:40:19.105Z,8.52
2023-02-19T06:42:51.728Z,8.39
2023-02-19T06:45:24.341Z,8.57
2023-02-19T06:47:56.893Z,8.74
2023-02-19T06:50:29.413Z,8.60
2023-02-19T06:53:03.140Z,8.61
2023-02-19T06:55:35.697Z,8.76
2023-02-19T06:58:08.242Z,8.77
2023-02-19T07:00:40.797Z,8.65
2023-02-19T07:03:13.363Z,8.92
2023-02-19T07:05:46.071Z,8.73
2023-02-19T07:08:18.760Z,8.66
2023-02-19T07:10:57.190Z,8.94
2023-02-19T07:13:29.787Z,8.75
2023-02-19T07:16:07.931Z,8.64
2023-02-19T07:18:40.948Z,8.89
2023-02-19T07:21:15.469Z,8.62
2023-02-19T07:23:48.056Z,8.70
2023-02-19T07:26:22.273Z,8.60
2023-02-19T07:28:54.844Z,8.43
2023-02-19T07:31:28.733Z,8.45
2023-02-19T07:34:01.363Z,8.50
2023-02-19T07:36:33.889Z,8.23
2023-02-19T07:39:08.022Z,8.28
2023-02-19T07:41:41.785Z,8.17
2023-02-19T07:44:16.422Z,8.23
2023-02-19T07:46:48.995Z,8.20
2023-02-19T07:49:21.584Z,8.28
2023-02-19T07:51:54.208Z,8.05
2023-02-19T07:54:26.840Z,8.02
2023-02-19T07:56:59.685Z,8.09
2023-02-19T07:59:32.358Z,8.25
2023-02-19T08:02:23.843Z,8.25
2023-02-19T08:04:56.392Z,8.18
2023-02-19T08:07:34.606Z,8.22
2023-02-19T08:10:26.379Z,8.21
2023-02-19T08:13:19.716Z,8.21
2023-02-19T08:16:18.343Z,8.36
2023-02-19T08:18:52.906Z,8.35
2023-02-19T08:21:25.604Z,8.58
2023-02-19T08:23:58.305Z,8.61
2023-02-19T08:26:30.902Z,8.48
2023-02-19T08:29:05.446Z,8.64
2023-02-19T08:31:38.356Z,8.54
2023-02-19T08:34:10.965Z,8.45
2023-02-19T08:36:44.147Z,8.58
2023-02-19T08:39:16.759Z,8.76
2023-02-19T08:41:49.603Z,8.82
2023-02-19T08:44:22.155Z,8.85
2023-02-19T08:46:54.660Z,9.17
2023-02-19T08:49:27.810Z,8.97
2023-02-19T08:52:00.433Z,9.01
2023-02-19T08:54:33.069Z,9.26
2023-02-19T08:57:06.241Z,9.22
2023-02-19T08:59:38.764Z,8.92
2023-02-19T09:02:12.673Z,9.04
2023-02-19T09:04:45.181Z,9.20
2023-02-19T09:07:18.239Z,9.20
2023-02-19T09:09:50.734Z,9.21
2023-02-19T09:12:23.343Z,9.35
2023-02-19T09:14:55.958Z,9.55
2023-02-19T09:17:28.541Z,9.34
2023-02-19T09:20:01.204Z,9.29
2023-02-19T09:22:33.729Z,9.07
2023-02-19T09:25:06.390Z,9.33
2023-02-19T09:27:38.987Z,9.16
2023-02-19T09:30:11.730Z,9.28
2023-02-19T09:32:44.272Z,9.33
2023-02-19T09:35:16.873Z,9.58
2023-02-19T09:37:49.396Z,9.48
2023-02-19T09:40:22.474Z,9.20
2023-02-19T09:42:55.277Z,9.31
2023-02-19T09:45:27.947Z,9.54
2023-02-19T09:48:00.571Z,9.66
2023-02-19T09:50:45.566Z,9.42
2023-02-19T09:53:27.247Z,9.69
2023-02-19T09:56:01.406Z,9.40
2023-02-19T09:58:57.084Z,9.52
2023-02-19T10:01:38.057Z,9.22
2023-02-19T10:04:11.437Z,9.18
2023-02-19T10:06:44.508Z,9.38
2023-02-19T10:09:26.952Z,9.24
2023-02-19T10:12:00.409Z,9.38
2023-02-19T10:14:40.651Z,9.37
2023-02-19T10:17:29.543Z,9.18
2023-02-19T10:20:05.356Z,9.49
2023-02-19T10:22:38.269Z,9.39
2023-02-19T10:25:17.492Z,9.40
2023-02-19T10:27:50.284Z,9.40
2023-02-19T10:30:28.515Z,9.34
2023-02-19T10:33:12.423Z,9.55
2023-02-19T10:36:21.764Z,9.17
2023-02-19T10:38:55.220Z,9.48
2023-02-19T10:41:28.905Z,9.79
2023-02-19T10:44:21.511Z,9.83
2023-02-19T10:46:59.870Z,9.47
2023-02-19T10:49:40.887Z,9.65
2023-02-19T10:52:21.022Z,9.31
2023-02-19T10:55:17.442Z,9.55
2023-02-19T10:57:50.629Z,9.88
2023-02-19T11:00:30.599Z,10.09
2023-02-19T11:03:20.540Z,9.74
2023-02-19T11:06:04.772Z,9.96
2023-02-19T11:08:59.051Z,9.61
2023-02-19T11:11:40.389Z,9.56
2023-02-19T11:14:22.648Z,9.42
2023-02-19T11:16:59.328Z,9.27
2023-02-19T11:19:40.289Z,9.50
2023-02-19T11:22:35.432Z,9.46
2023-02-19T11:25:21.913Z,9.58
2023-02-19T11:28:07.505Z,10.05
2023-02-19T11:30:45.692Z,10.08
2023-02-19T11:33:22.170Z,9.65
2023-02-19T11:36:21.526Z,10.09
2023-02-19T11:38:56.588Z,9.94
2023-02-19T11:42:20.252Z,10.26
2023-02-19T11:45:46.178Z,10.41
2023-02-19T11:48:55.946Z,10.02
2023-02-19T11:51:35.888Z,9.90
2023-02-19T11:54:26.500Z,10.07
2023-02-19T11:57:31.473Z,10.17
2023-02-19T12:00:17.886Z,10.32
2023-02-19T12:03:35.572Z,10.37
2023-02-19T12:06:55.516Z,10.31
2023-02-19T12:10:28.316Z,10.32
2023-02-19T12:13:54.987Z,10.26
2023-02-19T12:16:40.794Z,10.10
2023-02-19T12:19:34.474Z,10.35
2023-02-19T12:22:29.567Z,10.16
2023-02-19T12:25:28.992Z,10.36
2023-02-19T12:28:10.536Z,10.21
2023-02-19T12:31:09.052Z,10.50
2023-02-19T12:34:34.819Z,10.52
2023-02-19T12:37:39.771Z,10.17
2023-02-19T12:40:49.740Z,10.00
2023-02-19T12:43:24.164Z,10.64
2023-02-19T12:46:08.238Z,10.77
2023-02-19T12:48:53.873Z,10.75
2023-02-19T12:51:34.104Z,10.75
2023-02-19T12:54:30.764Z,10.26
2023-02-19T12:57:13.572Z,9.98
2023-02-19T13:00:23.068Z,10.16
2023-02-19T13:03:09.639Z,10.04
2023-02-19T13:06:01.749Z,10.05
2023-02-19T13:09:07.486Z,10.22
2023-02-19T13:12:08.716Z,9.84
2023-02-19T13:14:52.780Z,10.12
2023-02-19T13:17:38.504Z,10.24
2023-02-19T13:20:25.119Z,10.09
2023-02-19T13:23:32.011Z,10.17
2023-02-19T13:26:41.218Z,9.85
2023-02-19T13:29:53.354Z,10.04
2023-02-19T13:33:09.879Z,9.83
2023-02-19T13:36:08.247Z,9.86
2023-02-19T13:38:45.990Z,9.76
2023-02-19T13:41:41.971Z,9.77
2023-02-19T13:44:27.037Z,9.52
2023-02-19T13:47:00.887Z,9.29
2023-02-19T13:49:36.203Z,8.93
2023-02-19T13:52:30.485Z,9.04
2023-02-19T13:55:44.177Z,8.84
2023-02-19T13:58:38.910Z,8.78
2023-02-19T14:01:14.097Z,8.89
2023-02-19T14:04:07.179Z,8.49
2023-02-19T14:07:04.691Z,8.28
2023-02-19T14:09:37.275Z,8.20
2023-02-19T14:12:10.134Z,8.51
2023-02-19T14:14:48.889Z,8.41
2023-02-19T14:17:42.504Z,8.43
2023-02-19T14:20:14.911Z,8.34
2023-02-19T14:22:47.649Z,8.31
2023-02-19T14:25:45.779Z,8.64
2023-02-19T14:28:30.641Z,8.23
2023-02-19T14:31:11.871Z,8.53
2023-02-19T14:33:49.695Z,8.42
2023-02-19T14:36:48.690Z,8.58
2023-02-19T14:39:35.119Z,8.52
2023-02-19T14:42:32.418Z,8.58
2023-02-19T14:45:07.978Z,8.80
2023-02-19T14:47:41.756Z,8.30
2023-02-19T14:50:29.299Z,8.66
2023-02-19T14:53:07.298Z,8.47
2023-02-19T14:55:43.820Z,8.51
2023-02-19T14:58:28.674Z,8.53
2023-02-19T15:01:01.311Z,8.54
2023-02-19T15:03:37.552Z,8.52
2023-02-19T15:06:19.476Z,8.53
2023-02-19T15:09:00.179Z,8.51
2023-02-19T15:11:35.298Z,8.31
2023-02-19T15:14:20.506Z,8.47
2023-02-19T15:17:01.195Z,8.39
2023-02-19T15:19:39.507Z,8.58
2023-02-19T15:22:24.577Z,8.58
2023-02-19T15:25:00.459Z,8.70
2023-02-19T15:27:34.346Z,8.51
2023-02-19T15:30:27.463Z,8.80
2023-02-19T15:33:00.698Z,8.72
2023-02-19T15:35:33.469Z,8.72
2023-02-19T15:38:11.436Z,8.53
2023-02-19T15:40:49.060Z,8.43
2023-02-19T15:43:29.709Z,8.32
2023-02-19T15:46:18.104Z,7.98
2023-02-19T15:49:07.910Z,8.10
2023-02-19T15:51:59.536Z,8.08
2023-02-19T15:54:42.235Z,7.91
2023-02-19T15:57:25.299Z,8.17
2023-02-19T16:00:26.722Z,7.91
2023-02-19T16:02:59.644Z,7.97
2023-02-19T16:05:39.293Z,7.69
2023-02-19T16:08:11.958Z,7.90
2023-02-19T16:11:22.927Z,7.92
2023-02-19T16:14:34.226Z,7.86
2023-02-19T16:17:09.801Z,7.92
2023-02-19T16:19:56.738Z,7.71
2023-02-19T16:22:41.847Z,7.56
2023-02-19T16:25:36.040Z,7.50
2023-02-19T16:28:18.627Z,7.12
2023-02-19T16:30:58.457Z,7.21
2023-02-19T16:33:34.816Z,6.97
2023-02-19T16:36:33.437Z,7.01
2023-02-19T16:39:09.304Z,6.96
2023-02-19T16:41:47.829Z,6.97
2023-02-19T16:44:30.892Z,7.41
2023-02-19T16:47:15.221Z,6.97
2023-02-19T16:49:47.820Z,7.19
2023-02-19T16:52:20.383Z,7.08
2023-02-19T16:54:53.250Z,7.05
2023-02-19T16:57:25.817Z,7.17
2023-02-19T16:59:58.394Z,7.19
2023-02-19T17:02:33.336Z,7.23
2023-02-19T17:05:05.946Z,7.30
2023-02-19T17:07:38.479Z,7.14
2023-02-19T17:10:17.812Z,7.01
2023-02-19T17:12:55.537Z,7.18
2023-02-19T17:15:28.140Z,7.29
2023-02-19T17:18:00.626Z,7.16
2023-02-19T17:20:36.207Z,7.13
2023-02-19T17:23:08.753Z,7.27
2023-02-19T17:25:41.344Z,7.41
2023-02-19T17:28:13.895Z,7.16
2023-02-19T17:30:46.451Z,7.20
2023-02-19T17:33:19.005Z,7.05
2023-02-19T17:35:51.595Z,7.24
2023-02-19T17:38:24.146Z,7.21
2023-02-19T17:40:56.720Z,7.12
2023-02-19T17:43:29.257Z,7.00
2023-02-19T17:46:01.979Z,7.35
2023-02-19T17:48:34.560Z,7.32
2023-02-19T17:51:07.565Z,7.39
2023-02-19T17:53:40.290Z,7.17
2023-02-19T17:56:23.577Z,7.10
2023-02-19T17:58:58.412Z,7.05
2023-02-19T18:01:31.036Z,6.92
2023-02-19T18:04:04.131Z,7.10
2023-02-19T18:06:36.722Z,7.01
2023-02-19T18:09:11.484Z,7.09
2023-02-19T18:11:46.469Z,6.83
2023-02-19T18:14:19.147Z,6.81
2023-02-19T18:16:51.883Z,7.05
2023-02-19T18:19:26.065Z,7.09
2023-02-19T18:21:58.601Z,7.22
2023-02-19T18:24:31.154Z,6.90
2023-02-19T18:27:04.310Z,7.02
2023-02-19T18:29:36.947Z,6.77
2023-02-19T18:32:09.817Z,6.67
2023-02-19T18:34:42.436Z,6.67
2023-02-19T18:37:14.976Z,6.62
2023-02-19T18:39:47.904Z,6.53
2023-02-19T18:42:22.544Z,6.47
2023-02-19T18:44:56.373Z,6.50
2023-02-19T18:47:28.999Z,6.57
2023-02-19T18:50:01.719Z,6.46
2023-02-19T18:52:34.333Z,6.40
2023-02-19T18:55:07.737Z,6.28
2023-02-19T18:57:40.377Z,6.22
2023-02-19T19:00:20.745Z,6.20
2023-02-19T19:03:00.140Z,6.16
2023-02-19T19:05:32.729Z,6.28
2023-02-19T19:08:05.337Z,6.22
2023-02-19T19:10:37.893Z,5.99
2023-02-19T19:13:10.584Z,5.97
2023-02-19T19:15:45.012Z,6.07
2023-02-19T19:18:18.316Z,6.05
2023-02-19T19:20:50.973Z,5.96
2023-02-19T19:23:23.771Z,5.92
2023-02-19T19:25:56.741Z,5.87
2023-02-19T19:28:31.249Z,6.02
2023-02-19T19:31:04.620Z,5.80
2023-02-19T19:33:37.257Z,5.86
2023-02-19T19:36:11.531Z,5.83
2023-02-19T19:38:44.137Z,5.88
2023-02-19T19:41:20.071Z,5.86
2023-02-19T19:43:52.664Z,5.88
2023-02-19T19:46:25.259Z,5.98
2023-02-19T19:48:57.864Z,5.81
2023-02-19T19:51:35.473Z,5.87
2023-02-19T19:54:08.462Z,5.83
2023-02-19T19:56:47.155Z,5.81
2023-02-19T19:59:19.996Z,5.79
2023-02-19T20:02:01.672Z,5.79
2023-02-19T20:04:34.548Z,5.78
2023-02-19T20:07:07.153Z,5.79
2023-02-19T20:09:39.692Z,5.63
2023-02-19T20:12:12.718Z,5.51
2023-02-19T20:14:46.731Z,5.41
2023-02-19T20:17:19.312Z,5.47
2023-02-19T20:19:51.822Z,5.55
2023-02-19T20:22:24.758Z,5.47
2023-02-19T20:24:57.563Z,5.36
2023-02-19T20:27:30.163Z,5.34
2023-02-19T20:30:03.468Z,5.38
2023-02-19T20:32:36.049Z,5.33
2023-02-19T20:35:08.945Z,5.34
2023-02-19T20:37:41.611Z,5.32
2023-02-19T20:40:18.011Z,5.27
2023-02-19T20:42:50.614Z,5.21
2023-02-19T20:45:23.384Z,5.16
2023-02-19T20:47:56.096Z,5.13
2023-02-19T20:50:28.852Z,5.09
2023-02-19T20:53:01.417Z,4.97
2023-02-19T20:55:34.085Z,4.92
2023-02-19T20:58:09.070Z,4.94
2023-02-19T21:00:41.580Z,4.83
2023-02-19T21:03:14.219Z,4.85
2023-02-19T21:05:47.122Z,4.71
2023-02-19T21:08:19.650Z,4.70
2023-02-19T21:10:52.255Z,4.58
2023-02-19T21:13:24.732Z,4.57
2023-02-19T21:15:57.332Z,4.58
2023-02-19T21:18:30.017Z,4.50
2023-02-19T21:21:02.602Z,4.53
2023-02-19T21:23:35.162Z,4.49
2023-02-19T21:26:08.171Z,4.35
2023-02-19T21:28:40.768Z,4.42
2023-02-19T21:31:13.849Z,4.46
2023-02-19T21:33:46.955Z,4.53
2023-02-19T21:36:19.459Z,4.31
2023-02-19T21:38:52.045Z,4.42
2023-02-19T21:41:28.403Z,4.42
2023-02-19T21:44:01.087Z,4.44
2023-02-19T21:46:33.678Z,4.40
2023-02-19T21:49:06.892Z,4.29
2023-02-19T21:51:42.784Z,4.39
2023-02-19T21:54:21.149Z,4.33
2023-02-19T21:56:54.643Z,4.29
2023-02-19T21:59:27.217Z,4.31
2023-02-19T22:01:59.864Z,4.38
2023-02-19T22:04:32.373Z,4.35
2023-02-19T22:07:04.859Z,4.31
2023-02-19T22:09:38.802Z,4.41
2023-02-19T22:12:11.316Z,4.40
2023-02-19T22:14:44.364Z,4.46
2023-02-19T22:17:17.012Z,4.40
2023-02-19T22:19:49.543Z,4.27
2023-02-19T22:22:22.106Z,4.35
2023-02-19T22:24:54.764Z,4.49
2023-02-19T22:27:29.269Z,4.35
2023-02-19T22:30:01.828Z,4.36
2023-02-19T22:32:34.470Z,4.35
2023-02-19T22:35:07.399Z,4.33
2023-02-19T22:37:39.940Z,4.35
2023-02-19T22:40:12.974Z,4.38
2023-02-19T22:42:45.597Z,4.35
2023-02-19T22:45:18.168Z,4.25
2023-02-19T22:47:55.644Z,4.29
2023-02-19T22:50:28.218Z,4.25
2023-02-19T22:53:00.731Z,4.19
2023-02-19T22:55:33.271Z,4.19
2023-02-19T22:58:05.812Z,4.15
2023-02-19T23:00:38.320Z,4.15
2023-02-19T23:03:10.977Z,4.12
2023-02-19T23:05:43.603Z,4.11
2023-02-19T23:08:16.091Z,4.12
2023-02-19T23:10:49.798Z,4.04
2023-02-19T23:13:22.305Z,4.08
2023-02-19T23:15:54.802Z,4.08
2023-02-19T23:18:27.299Z,4.08
2023-02-19T23:20:59.852Z,4.12
2023-02-19T23:23:32.394Z,4.20
2023-02-19T23:26:04.999Z,4.06
2023-02-19T23:28:40.550Z,4.11
2023-02-19T23:31:14.709Z,4.16
2023-02-19T23:33:47.420Z,4.28
2023-02-19T23:36:21.705Z,4.26
2023-02-19T23:38:54.204Z,4.34
2023-02-19T23:41:26.673Z,4.52
2023-02-19T23:43:59.207Z,4.61
2023-02-19T23:46:33.757Z,4.65
2023-02-19T23:49:06.513Z,4.61
2023-02-19T23:51:39.392Z,4.68
2023-02-19T23:54:12.367Z,4.85
2023-02-19T23:56:44.914Z,4.93
2023-02-19T23:59:17.389Z,4.80
